Terminal Aerodrome Forecast
Issued by NWS

Current Version | Previous Version | Text Only | Print | Product List | Glossary On
Versions: 1 2 3 4 5 6 7 8 9 10 11 12 13 14 15
541
FTUS42 TJSJ 231135
TAFJMZ
TAF
TJMZ 231135Z 2312/2412 06008KT P6SM FEW030
     FM231500 27010KT P6SM SCT040
     FM232300 06005KT P6SM FEW060
      AMD NOT SKED=

USA.gov is the U.S. government's official web portal to all federal, state and local government web resources and services.